createdAt,value
2019-05-03T00:00:18.773Z,97766.25
2019-05-03T00:02:52.231Z,97773.70
2019-05-03T00:05:04.355Z,97770.72
2019-05-03T00:07:08.323Z,97776.51
2019-05-03T00:09:14.388Z,97777.88
2019-05-03T00:11:22.090Z,97774.08
2019-05-03T00:13:26.107Z,97775.13
2019-05-03T00:15:48.938Z,97774.59
2019-05-03T00:17:52.766Z,97774.31
2019-05-03T00:19:56.587Z,97775.69
2019-05-03T00:22:02.144Z,97775.99
2019-05-03T00:24:06.990Z,97776.27
2019-05-03T00:26:11.998Z,97776.27
2019-05-03T00:28:15.895Z,97774.66
2019-05-03T00:30:19.792Z,97776.54
2019-05-03T00:32:25.695Z,97772.42
2019-05-03T00:34:34.494Z,97774.66
2019-05-03T00:36:52.487Z,97775.48
2019-05-03T00:39:01.938Z,97776.61
2019-05-03T00:41:05.908Z,97776.64
2019-05-03T00:43:11.598Z,97778.56
2019-05-03T00:45:16.617Z,97778.05
2019-05-03T00:47:22.155Z,97773.97
2019-05-03T00:49:27.021Z,97770.68
2019-05-03T00:51:31.789Z,97771.53
2019-05-03T00:53:35.560Z,97773.45
2019-05-03T00:55:42.010Z,97765.23
2019-05-03T00:57:45.782Z,97760.84
2019-05-03T00:59:49.637Z,97757.04
2019-05-03T01:01:53.425Z,97758.95
2019-05-03T01:03:57.257Z,97751.83
2019-05-03T01:06:02.322Z,97761.70
2019-05-03T01:08:06.245Z,97755.19
2019-05-03T01:10:11.839Z,97761.04
2019-05-03T01:12:15.717Z,97762.27
2019-05-03T01:14:19.592Z,97766.46
2019-05-03T01:16:25.956Z,97767.92
2019-05-03T01:18:29.793Z,97768.58
2019-05-03T01:20:33.677Z,97766.42
2019-05-03T01:22:37.504Z,97772.74
2019-05-03T01:24:42.776Z,97777.40
2019-05-03T01:26:47.642Z,97774.11
2019-05-03T01:28:52.120Z,97776.85
2019-05-03T01:30:56.257Z,97776.30
2019-05-03T01:33:00.101Z,97776.61
2019-05-03T01:35:05.634Z,97782.36
2019-05-03T01:37:09.456Z,97777.67
2019-05-03T01:39:13.240Z,97780.98
2019-05-03T01:41:17.052Z,97771.95
2019-05-03T01:43:22.212Z,97774.41
2019-05-03T01:45:26.140Z,97782.95
2019-05-03T01:47:37.685Z,97778.84
2019-05-03T01:49:49.093Z,97782.95
2019-05-03T01:52:12.813Z,97782.70
2019-05-03T01:54:16.623Z,97783.01
2019-05-03T01:56:22.260Z,97781.64
2019-05-03T01:58:26.226Z,97789.03
2019-05-03T02:00:31.883Z,97788.20
2019-05-03T02:02:52.468Z,97792.07
2019-05-03T02:05:15.449Z,97784.41
2019-05-03T02:07:19.321Z,97783.30
2019-05-03T02:09:23.102Z,97789.38
2019-05-03T02:11:26.908Z,97789.38
2019-05-03T02:13:32.129Z,97792.12
2019-05-03T02:15:37.054Z,97792.88
2019-05-03T02:17:42.649Z,97788.53
2019-05-03T02:19:46.510Z,97788.80
2019-05-03T02:21:52.215Z,97786.64
2019-05-03T02:23:55.936Z,97789.66
2019-05-03T02:25:59.831Z,97786.09
2019-05-03T02:28:03.736Z,97784.72
2019-05-03T02:30:08.044Z,97788.58
2019-05-03T02:32:13.321Z,97788.30
2019-05-03T02:34:17.227Z,97789.98
2019-05-03T02:36:23.310Z,97788.88
2019-05-03T02:38:27.707Z,97791.09
2019-05-03T02:40:33.821Z,97791.37
2019-05-03T02:42:37.158Z,97785.07
2019-05-03T02:44:41.213Z,97787.27
2019-05-03T02:46:56.876Z,97785.89
2019-05-03T02:49:26.033Z,97786.16
2019-05-03T02:51:29.850Z,97790.84
2019-05-03T02:53:35.875Z,97790.05
2019-05-03T02:55:41.235Z,97792.50
2019-05-03T02:57:46.697Z,97792.28
2019-05-03T02:59:50.659Z,97790.66
2019-05-03T03:01:55.910Z,97792.88
2019-05-03T03:03:59.896Z,97795.09
2019-05-03T03:06:06.737Z,97790.70
2019-05-03T03:08:11.399Z,97796.45
2019-05-03T03:10:17.490Z,97790.70
2019-05-03T03:12:25.795Z,97795.90
2019-05-03T03:14:32.946Z,97787.45
2019-05-03T03:16:37.457Z,97794.85
2019-05-03T03:18:41.651Z,97790.22
2019-05-03T03:20:49.479Z,97785.84
2019-05-03T03:22:56.350Z,97784.23
2019-05-03T03:25:01.620Z,97794.35
2019-05-03T03:27:08.152Z,97794.08
2019-05-03T03:29:16.028Z,97789.98
2019-05-03T03:31:28.925Z,97783.69
2019-05-03T03:33:32.639Z,97789.74
2019-05-03T03:35:39.794Z,97782.08
2019-05-03T03:37:46.163Z,97784.84
2019-05-03T03:39:50.592Z,97781.81
2019-05-03T03:41:56.059Z,97785.37
2019-05-03T03:44:02.886Z,97790.84
2019-05-03T03:46:10.276Z,97792.23
2019-05-03T03:48:15.964Z,97793.30
2019-05-03T03:50:19.718Z,97796.03
2019-05-03T03:52:27.477Z,97795.27
2019-05-03T03:54:35.490Z,97796.08
2019-05-03T03:56:58.399Z,97796.65
2019-05-03T03:58:48.377Z,97801.55
2019-05-03T04:00:52.274Z,97809.22
2019-05-03T04:02:56.194Z,97808.68
2019-05-03T04:05:00.087Z,97807.86
2019-05-03T04:07:06.247Z,97814.17
2019-05-03T04:09:11.729Z,97816.62
2019-05-03T04:11:15.804Z,97819.11
2019-05-03T04:13:21.501Z,97811.75
2019-05-03T04:15:56.628Z,97816.68
2019-05-03T04:18:19.034Z,97819.18
2019-05-03T04:20:25.711Z,97822.48
2019-05-03T04:22:30.587Z,97826.05
2019-05-03T04:24:35.348Z,97832.61
2019-05-03T04:26:40.802Z,97833.70
2019-05-03T04:28:45.370Z,97836.20
2019-05-03T04:30:49.281Z,97841.38
2019-05-03T04:32:56.191Z,97849.06
2019-05-03T04:34:58.620Z,97850.97
2019-05-03T04:37:05.188Z,97852.61
2019-05-03T04:39:08.072Z,97850.14
2019-05-03T04:41:11.958Z,97854.02
2019-05-03T04:43:16.562Z,97858.94
2019-05-03T04:45:20.415Z,97860.30
2019-05-03T04:47:26.456Z,97861.69
2019-05-03T04:49:31.501Z,97871.52
2019-05-03T04:51:35.364Z,97872.34
2019-05-03T04:53:41.796Z,97872.63
2019-05-03T04:55:46.828Z,97870.45
2019-05-03T04:57:50.779Z,97873.19
2019-05-03T04:59:56.048Z,97882.46
2019-05-03T05:01:59.941Z,97884.65
2019-05-03T05:04:05.319Z,97877.81
2019-05-03T05:06:09.388Z,97888.21
2019-05-03T05:08:13.200Z,97892.03
2019-05-03T05:10:17.084Z,97886.86
2019-05-03T05:12:20.918Z,97887.67
2019-05-03T05:14:25.830Z,97893.69
2019-05-03T05:16:29.840Z,97891.78
2019-05-03T05:18:41.555Z,97895.59
2019-05-03T05:20:52.994Z,97901.90
2019-05-03T05:22:56.901Z,97902.98
2019-05-03T05:25:04.366Z,97910.10
2019-05-03T05:27:19.752Z,97905.72
2019-05-03T05:29:25.629Z,97907.64
2019-05-03T05:31:30.461Z,97906.56
2019-05-03T05:33:35.352Z,97914.47
2019-05-03T05:35:39.204Z,97911.73
2019-05-03T05:37:44.419Z,97915.81
2019-05-03T05:39:48.239Z,97917.75
2019-05-03T05:41:52.050Z,97918.83
2019-05-03T05:43:55.833Z,97925.66
2019-05-03T05:45:59.658Z,97922.38
2019-05-03T05:48:07.898Z,97924.59
2019-05-03T05:50:27.871Z,97931.12
2019-05-03T05:52:31.628Z,97923.47
2019-05-03T05:54:37.365Z,97930.30
2019-05-03T05:56:58.156Z,97934.13
2019-05-03T05:59:05.944Z,97936.88
2019-05-03T06:01:20.155Z,97946.98
2019-05-03T06:03:25.237Z,97954.08
2019-05-03T06:05:29.087Z,97957.42
2019-05-03T06:07:44.338Z,97954.72
2019-05-03T06:09:58.687Z,97954.99
2019-05-03T06:12:09.623Z,97962.66
2019-05-03T06:14:20.090Z,97965.12
2019-05-03T06:16:41.499Z,97964.59
2019-05-03T06:19:07.494Z,97978.80
2019-05-03T06:21:19.066Z,97976.64
2019-05-03T06:23:34.756Z,97978.80
2019-05-03T06:25:40.880Z,97984.83
2019-05-03T06:27:44.954Z,97982.36
2019-05-03T06:29:49.768Z,97990.01
2019-05-03T06:32:05.386Z,97991.09
2019-05-03T06:34:09.294Z,97987.56
2019-05-03T06:36:15.118Z,97993.02
2019-05-03T06:38:18.730Z,97993.02
2019-05-03T06:40:22.618Z,97992.45
2019-05-03T06:42:26.478Z,97998.48
2019-05-03T06:44:30.358Z,97996.84
2019-05-03T06:46:45.631Z,98002.58
2019-05-03T06:48:50.694Z,98006.68
2019-05-03T06:50:55.786Z,98003.95
2019-05-03T06:53:04.339Z,98006.94
2019-05-03T06:55:10.505Z,98007.77
2019-05-03T06:57:14.803Z,98012.14
2019-05-03T06:59:26.939Z,98008.30
2019-05-03T07:01:37.847Z,98006.68
2019-05-03T07:04:05.090Z,98003.95
2019-05-03T07:06:34.481Z,98005.31
2019-05-03T07:08:49.651Z,98002.01
2019-05-03T07:10:57.148Z,98012.94
2019-05-03T07:13:02.262Z,98009.66
2019-05-03T07:15:06.080Z,98011.03
2019-05-03T07:17:09.965Z,98015.41
2019-05-03T07:19:14.725Z,98012.39
2019-05-03T07:21:18.518Z,98015.12
2019-05-03T07:23:24.351Z,98018.97
2019-05-03T07:25:27.862Z,98022.23
2019-05-03T07:27:31.731Z,98033.98
2019-05-03T07:29:36.607Z,98025.79
2019-05-03T07:31:40.413Z,98034.23
2019-05-03T07:33:44.676Z,98033.16
2019-05-03T07:35:48.410Z,98031.25
2019-05-03T07:37:52.235Z,98032.61
2019-05-03T07:39:56.252Z,98027.68
2019-05-03T07:42:00.029Z,98024.41
2019-05-03T07:44:05.375Z,98030.94
2019-05-03T07:46:09.169Z,98023.81
2019-05-03T07:48:14.917Z,98028.73
2019-05-03T07:50:18.691Z,98024.63
2019-05-03T07:52:22.433Z,98024.37
2019-05-03T07:54:26.156Z,98021.88
2019-05-03T07:56:35.578Z,98024.88
2019-05-03T07:58:40.621Z,98022.10
2019-05-03T08:00:44.747Z,98024.52
2019-05-03T08:02:48.505Z,98018.76
2019-05-03T08:04:52.330Z,98022.56
2019-05-03T08:06:56.168Z,98025.28
2019-05-03T08:09:00.218Z,98021.44
2019-05-03T08:11:05.324Z,98020.83
2019-05-03T08:13:09.176Z,98029.80
2019-05-03T08:15:15.592Z,98025.66
2019-05-03T08:17:18.860Z,98022.64
2019-05-03T08:19:24.476Z,98029.70
2019-05-03T08:21:28.167Z,98026.37
2019-05-03T08:23:31.963Z,98017.28
2019-05-03T08:25:36.860Z,98020.24
2019-05-03T08:27:40.588Z,98017.11
2019-05-03T08:29:45.403Z,98015.07
2019-05-03T08:31:59.825Z,98019.09
2019-05-03T08:34:35.053Z,98019.02
2019-05-03T08:36:59.182Z,98020.11
2019-05-03T08:39:05.360Z,98016.50
2019-05-03T08:41:10.394Z,98015.52
2019-05-03T08:43:15.547Z,98012.59
2019-05-03T08:45:19.420Z,98009.65
2019-05-03T08:47:24.746Z,98007.30
2019-05-03T08:49:28.745Z,98008.89
2019-05-03T08:51:32.462Z,98004.09
2019-05-03T08:53:36.333Z,98004.23
2019-05-03T08:55:40.112Z,98000.11
2019-05-03T08:57:44.791Z,98005.36
2019-05-03T08:59:48.585Z,98000.48
2019-05-03T09:01:52.402Z,98003.02
2019-05-03T09:03:56.261Z,98006.41
2019-05-03T09:06:00.032Z,98004.91
2019-05-03T09:08:05.679Z,98009.48
2019-05-03T09:10:18.699Z,98004.50
2019-05-03T09:12:22.408Z,98000.97
2019-05-03T09:14:38.750Z,97999.05
2019-05-03T09:16:31.739Z,98009.20
2019-05-03T09:18:35.460Z,98010.92
2019-05-03T09:20:39.256Z,98011.30
2019-05-03T09:22:45.210Z,98013.83
2019-05-03T09:24:48.572Z,98016.84
2019-05-03T09:26:52.498Z,98015.53
2019-05-03T09:28:56.299Z,98018.34
2019-05-03T09:31:00.027Z,98012.42
2019-05-03T09:33:06.000Z,98014.45
2019-05-03T09:35:28.987Z,98018.91
2019-05-03T09:37:19.400Z,98018.66
2019-05-03T09:39:24.524Z,98014.89
2019-05-03T09:41:28.470Z,98016.02
2019-05-03T09:43:32.252Z,98022.33
2019-05-03T09:45:37.073Z,98020.11
2019-05-03T09:47:41.013Z,98025.02
2019-05-03T09:49:45.363Z,98019.75
2019-05-03T09:51:49.263Z,98017.81
2019-05-03T09:53:57.694Z,98019.13
2019-05-03T09:56:01.518Z,98016.88
2019-05-03T09:58:05.687Z,98012.12
2019-05-03T10:00:11.387Z,98019.41
2019-05-03T10:02:15.266Z,98004.19
2019-05-03T10:04:19.108Z,98008.17
2019-05-03T10:06:25.033Z,98012.70
2019-05-03T10:08:28.310Z,98013.98
2019-05-03T10:10:51.155Z,98013.08
2019-05-03T10:12:55.146Z,98018.27
2019-05-03T10:14:58.867Z,98017.75
2019-05-03T10:17:27.798Z,98018.03
2019-05-03T10:19:37.698Z,98019.13
2019-05-03T10:21:39.286Z,98017.79
2019-05-03T10:23:44.922Z,98017.83
2019-05-03T10:25:48.574Z,98012.64
2019-05-03T10:27:52.481Z,98017.55
2019-05-03T10:30:09.660Z,98010.89
2019-05-03T10:32:15.147Z,98011.47
2019-05-03T10:34:19.020Z,98013.88
2019-05-03T10:36:24.762Z,98009.36
2019-05-03T10:38:28.316Z,98015.03
2019-05-03T10:40:33.035Z,98009.22
2019-05-03T10:42:36.926Z,98010.83
2019-05-03T10:44:40.739Z,98012.72
2019-05-03T10:46:45.268Z,98009.66
2019-05-03T10:48:49.085Z,98006.91
2019-05-03T10:50:52.870Z,98009.66
2019-05-03T10:53:24.562Z,98012.76
2019-05-03T10:55:30.292Z,98016.12
2019-05-03T10:57:36.427Z,98013.45
2019-05-03T10:59:40.319Z,98010.20
2019-05-03T11:02:06.296Z,98005.05
2019-05-03T11:04:11.109Z,98012.19
2019-05-03T11:06:14.924Z,98009.44
2019-05-03T11:08:18.720Z,98008.82
2019-05-03T11:10:25.169Z,98007.72
2019-05-03T11:12:29.199Z,98009.92
2019-05-03T11:14:35.000Z,98004.19
2019-05-03T11:16:38.875Z,98008.34
2019-05-03T11:18:42.612Z,98000.73
2019-05-03T11:20:46.441Z,97997.16
2019-05-03T11:22:50.246Z,97992.80
2019-05-03T11:24:54.685Z,97994.17
2019-05-03T11:27:00.453Z,97991.42
2019-05-03T11:29:05.185Z,98000.17
2019-05-03T11:31:26.511Z,97998.17
2019-05-03T11:33:35.495Z,97991.79
2019-05-03T11:35:46.321Z,97989.55
2019-05-03T11:37:53.991Z,97986.77
2019-05-03T11:39:57.843Z,97986.53
2019-05-03T11:42:01.686Z,97995.01
2019-05-03T11:44:24.585Z,97993.56
2019-05-03T11:46:28.391Z,97985.00
2019-05-03T11:48:32.209Z,97986.61
2019-05-03T11:50:35.931Z,97993.76
2019-05-03T11:52:39.722Z,97994.11
2019-05-03T11:54:45.256Z,97996.07
2019-05-03T11:56:49.238Z,98005.96
2019-05-03T11:58:54.859Z,98005.69
2019-05-03T12:01:14.905Z,98004.83
2019-05-03T12:03:35.379Z,98004.23
2019-05-03T12:05:38.887Z,98002.00
2019-05-03T12:07:45.544Z,98003.89
2019-05-03T12:09:49.362Z,97994.78
2019-05-03T12:11:55.345Z,97999.14
2019-05-03T12:14:11.626Z,97997.45
2019-05-03T12:16:21.785Z,98001.34
2019-05-03T12:18:21.475Z,97999.52
2019-05-03T12:20:28.505Z,98005.09
2019-05-03T12:22:31.504Z,97994.70
2019-05-03T12:24:37.046Z,98000.50
2019-05-03T12:26:44.653Z,98003.60
2019-05-03T12:28:46.725Z,98002.30
2019-05-03T12:30:51.548Z,97996.06
2019-05-03T12:32:55.342Z,98001.34
2019-05-03T12:34:59.214Z,97999.25
2019-05-03T12:37:05.169Z,98000.11
2019-05-03T12:39:23.226Z,98002.34
2019-05-03T12:41:15.686Z,98004.02
2019-05-03T12:43:19.483Z,97998.05
2019-05-03T12:45:24.781Z,97997.84
2019-05-03T12:47:28.702Z,97996.20
2019-05-03T12:49:32.498Z,98005.56
2019-05-03T12:51:36.239Z,97996.53
2019-05-03T12:53:39.980Z,97993.55
2019-05-03T12:55:43.775Z,97986.98
2019-05-03T12:57:47.500Z,97984.80
2019-05-03T12:59:57.717Z,97984.55
2019-05-03T13:02:24.755Z,97985.13
2019-05-03T13:04:31.274Z,97989.00
2019-05-03T13:06:37.855Z,97979.70
2019-05-03T13:08:45.394Z,97984.92
2019-05-03T13:10:49.898Z,97978.88
2019-05-03T13:12:55.861Z,97979.40
2019-05-03T13:14:59.306Z,97980.53
2019-05-03T13:17:04.743Z,97976.41
2019-05-03T13:19:08.581Z,97971.98
2019-05-03T13:21:12.434Z,97975.55
2019-05-03T13:23:16.187Z,97970.03
2019-05-03T13:25:20.157Z,97968.11
2019-05-03T13:27:25.300Z,97964.76
2019-05-03T13:29:29.155Z,97968.25
2019-05-03T13:31:34.703Z,97965.45
2019-05-03T13:33:38.492Z,97975.81
2019-05-03T13:35:44.451Z,97973.85
2019-05-03T13:37:47.963Z,97968.88
2019-05-03T13:39:51.742Z,97967.23
2019-05-03T13:41:55.614Z,97967.58
2019-05-03T13:43:59.436Z,97968.43
2019-05-03T13:46:05.112Z,97976.94
2019-05-03T13:48:08.710Z,97969.25
2019-05-03T13:50:15.128Z,97972.79
2019-05-03T13:52:19.963Z,97970.39
2019-05-03T13:54:25.517Z,97970.14
2019-05-03T13:56:29.458Z,97969.62
2019-05-03T13:58:35.576Z,97971.48
2019-05-03T14:00:38.768Z,97967.19
2019-05-03T14:02:44.780Z,97968.11
2019-05-03T14:04:52.526Z,97969.39
2019-05-03T14:06:55.281Z,97968.91
2019-05-03T14:08:59.014Z,97965.49
2019-05-03T14:11:04.835Z,97969.40
2019-05-03T14:13:08.337Z,97970.04
2019-05-03T14:15:12.326Z,97972.84
2019-05-03T14:17:16.091Z,97974.38
2019-05-03T14:19:27.009Z,97972.63
2019-05-03T14:21:39.434Z,97971.05
2019-05-03T14:24:00.682Z,97967.59
2019-05-03T14:26:04.622Z,97975.03
2019-05-03T14:28:08.502Z,97975.03
2019-05-03T14:30:14.601Z,97978.32
2019-05-03T14:32:25.771Z,97978.59
2019-05-03T14:34:25.747Z,97978.59
2019-05-03T14:36:29.571Z,97978.88
2019-05-03T14:38:33.294Z,97980.81
2019-05-03T14:40:37.019Z,97983.33
2019-05-03T14:42:40.806Z,97984.09
2019-05-03T14:44:45.530Z,97984.88
2019-05-03T14:46:49.398Z,97976.63
2019-05-03T14:48:54.950Z,97969.18
2019-05-03T14:50:59.746Z,97965.02
2019-05-03T14:53:05.468Z,97967.52
2019-05-03T14:55:15.478Z,97965.56
2019-05-03T14:57:31.953Z,97967.52
2019-05-03T15:00:16.985Z,97964.77
2019-05-03T15:02:40.228Z,97961.45
2019-05-03T15:04:34.918Z,97959.25
2019-05-03T15:06:38.205Z,97956.72
2019-05-03T15:08:42.012Z,97953.41
2019-05-03T15:10:45.851Z,97950.09
2019-05-03T15:12:49.605Z,97943.23
2019-05-03T15:14:54.589Z,97944.05
2019-05-03T15:17:00.399Z,97941.31
2019-05-03T15:19:05.429Z,97941.50
2019-05-03T15:21:09.343Z,97941.23
2019-05-03T15:23:14.691Z,97947.75
2019-05-03T15:25:18.655Z,97950.44
2019-05-03T15:27:24.622Z,97938.94
2019-05-03T15:29:27.888Z,97947.45
2019-05-03T15:31:31.641Z,97942.87
2019-05-03T15:33:35.546Z,97942.71
2019-05-03T15:35:39.351Z,97944.38
2019-05-03T15:37:45.100Z,97940.81
2019-05-03T15:39:48.583Z,97945.78
2019-05-03T15:41:54.332Z,97941.42
2019-05-03T15:44:19.761Z,97940.32
2019-05-03T15:46:45.506Z,97937.88
2019-05-03T15:48:52.168Z,97947.45
2019-05-03T15:50:57.984Z,97943.58
2019-05-03T15:53:01.727Z,97937.83
2019-05-03T15:55:06.124Z,97936.16
2019-05-03T15:57:09.921Z,97938.90
2019-05-03T15:59:15.008Z,97937.23
2019-05-03T16:01:18.845Z,97938.54
2019-05-03T16:03:22.632Z,97936.84
2019-05-03T16:05:26.349Z,97938.16
2019-05-03T16:07:30.154Z,97934.55
2019-05-03T16:09:35.239Z,97928.80
2019-05-03T16:11:38.918Z,97922.21
2019-05-03T16:13:44.675Z,97929.13
2019-05-03T16:15:48.335Z,97923.16
2019-05-03T16:17:52.137Z,97921.53
2019-05-03T16:19:55.939Z,97924.86
2019-05-03T16:21:59.758Z,97925.12
2019-05-03T16:24:05.000Z,97922.39
2019-05-03T16:26:08.701Z,97920.47
2019-05-03T16:28:17.487Z,97917.16
2019-05-03T16:30:29.038Z,97914.11
2019-05-03T16:32:34.689Z,97921.59
2019-05-03T16:34:38.317Z,97911.29
2019-05-03T16:36:42.157Z,97913.76
2019-05-03T16:38:45.950Z,97912.08
2019-05-03T16:40:49.802Z,97908.79
2019-05-03T16:42:53.528Z,97902.79
2019-05-03T16:44:57.818Z,97909.92
2019-05-03T16:47:01.558Z,97906.88
2019-05-03T16:49:06.542Z,97900.84
2019-05-03T16:51:11.458Z,97907.73
2019-05-03T16:53:15.193Z,97901.72
2019-05-03T16:55:19.001Z,97899.28
2019-05-03T16:57:24.629Z,97905.88
2019-05-03T16:59:28.274Z,97906.95
2019-05-03T17:01:31.994Z,97901.77
2019-05-03T17:03:45.435Z,97908.90
2019-05-03T17:06:16.392Z,97905.61
2019-05-03T17:08:48.101Z,97902.59
2019-05-03T17:10:54.479Z,97905.94
2019-05-03T17:12:57.971Z,97912.84
2019-05-03T17:15:01.958Z,97904.92
2019-05-03T17:17:07.281Z,97907.41
2019-05-03T17:19:11.174Z,97908.83
2019-05-03T17:21:16.333Z,97912.15
2019-05-03T17:23:20.153Z,97915.44
2019-05-03T17:25:24.505Z,97912.42
2019-05-03T17:27:28.283Z,97913.78
2019-05-03T17:29:32.136Z,97914.91
2019-05-03T17:31:35.852Z,97916.80
2019-05-03T17:33:50.628Z,97924.45
2019-05-03T17:35:45.100Z,97919.19
2019-05-03T17:37:48.908Z,97918.95
2019-05-03T17:40:14.823Z,97917.00
2019-05-03T17:42:25.463Z,97926.62
2019-05-03T17:44:34.811Z,97921.20
2019-05-03T17:46:38.534Z,97921.53
2019-05-03T17:48:42.323Z,97925.64
2019-05-03T17:50:46.209Z,97936.63
2019-05-03T17:52:56.783Z,97928.17
2019-05-03T17:55:16.100Z,97932.92
2019-05-03T17:57:24.356Z,97932.97
2019-05-03T17:59:34.947Z,97928.87
2019-05-03T18:02:15.728Z,97941.77
2019-05-03T18:04:44.157Z,97939.89
2019-05-03T18:06:58.512Z,97941.00
2019-05-03T18:09:21.270Z,97940.20
2019-05-03T18:11:28.894Z,97932.53
2019-05-03T18:13:32.801Z,97933.94
2019-05-03T18:15:36.576Z,97933.44
2019-05-03T18:17:40.390Z,97928.30
2019-05-03T18:19:44.802Z,97927.79
2019-05-03T18:21:48.819Z,97939.03
2019-05-03T18:23:54.341Z,97935.78
2019-05-03T18:25:58.209Z,97934.17
2019-05-03T18:28:01.982Z,97939.42
2019-05-03T18:30:07.118Z,97937.51
2019-05-03T18:32:10.829Z,97939.44
2019-05-03T18:34:19.923Z,97937.81
2019-05-03T18:36:20.149Z,97941.66
2019-05-03T18:38:25.222Z,97945.23
2019-05-03T18:40:30.235Z,97945.01
2019-05-03T18:42:39.986Z,97949.92
2019-05-03T18:44:47.625Z,97953.50
2019-05-03T18:46:55.083Z,97955.18
2019-05-03T18:48:58.903Z,97954.36
2019-05-03T18:51:02.638Z,97956.56
2019-05-03T18:53:06.506Z,97958.49
2019-05-03T18:55:10.650Z,97956.06
2019-05-03T18:57:15.669Z,97956.88
2019-05-03T18:59:22.528Z,97961.80
2019-05-03T19:01:26.267Z,97968.09
2019-05-03T19:03:30.132Z,97961.56
2019-05-03T19:05:35.754Z,97966.20
2019-05-03T19:07:54.609Z,97966.75
2019-05-03T19:10:11.392Z,97965.10
2019-05-03T19:12:32.428Z,97965.12
2019-05-03T19:14:36.307Z,97968.97
2019-05-03T19:16:57.755Z,97983.47
2019-05-03T19:19:01.677Z,97978.27
2019-05-03T19:21:05.487Z,97981.27
2019-05-03T19:23:09.400Z,97985.32
2019-05-03T19:25:14.876Z,97977.66
2019-05-03T19:27:18.680Z,97978.48
2019-05-03T19:29:22.417Z,97974.92
2019-05-03T19:31:26.557Z,97974.38
2019-05-03T19:33:30.368Z,97977.11
2019-05-03T19:35:36.341Z,97976.27
2019-05-03T19:37:39.701Z,97977.08
2019-05-03T19:39:43.450Z,97981.15
2019-05-03T19:41:47.246Z,97986.02
2019-05-03T19:43:51.161Z,97985.73
2019-05-03T19:45:54.964Z,97989.54
2019-05-03T19:47:59.772Z,97985.19
2019-05-03T19:50:05.056Z,97981.64
2019-05-03T19:52:10.171Z,97985.98
2019-05-03T19:54:14.693Z,97982.45
2019-05-03T19:56:19.613Z,97985.94
2019-05-03T19:58:24.884Z,97984.86
2019-05-03T20:00:37.027Z,97980.50
2019-05-03T20:03:05.231Z,97980.23
2019-05-03T20:05:22.002Z,97978.33
2019-05-03T20:07:50.635Z,97981.03
2019-05-03T20:09:54.498Z,97979.35
2019-05-03T20:11:58.591Z,97979.06
2019-05-03T20:14:04.724Z,97978.80
2019-05-03T20:16:08.693Z,97979.63
2019-05-03T20:18:14.918Z,97975.53
2019-05-03T20:20:20.422Z,97975.78
2019-05-03T20:22:24.881Z,97975.78
2019-05-03T20:24:30.852Z,97982.06
2019-05-03T20:26:34.908Z,97978.28
2019-05-03T20:28:38.807Z,97976.34
2019-05-03T20:30:45.200Z,97977.17
2019-05-03T20:32:49.321Z,97973.37
2019-05-03T20:34:55.006Z,97977.17
2019-05-03T20:36:58.595Z,97977.98
2019-05-03T20:39:05.445Z,97969.22
2019-05-03T20:41:09.258Z,97976.23
2019-05-03T20:43:41.021Z,97980.86
2019-05-03T20:45:54.693Z,97981.63
2019-05-03T20:47:59.755Z,97979.72
2019-05-03T20:50:17.162Z,97981.37
2019-05-03T20:52:20.897Z,97982.97
2019-05-03T20:54:24.619Z,97977.46
2019-05-03T20:56:28.431Z,97978.23
2019-05-03T20:58:32.249Z,97976.78
2019-05-03T21:00:36.097Z,97979.47
2019-05-03T21:02:50.679Z,97981.91
2019-05-03T21:04:45.415Z,97977.59
2019-05-03T21:06:49.195Z,97977.03
2019-05-03T21:08:54.208Z,97972.64
2019-05-03T21:10:58.505Z,97984.02
2019-05-03T21:13:02.236Z,97970.88
2019-05-03T21:15:09.399Z,97975.50
2019-05-03T21:17:32.236Z,97979.23
2019-05-03T21:19:47.804Z,97975.11
2019-05-03T21:22:19.458Z,97979.40
2019-05-03T21:24:29.238Z,97977.66
2019-05-03T21:26:34.583Z,97980.63
2019-05-03T21:28:38.657Z,97976.20
2019-05-03T21:30:42.480Z,97976.20
2019-05-03T21:32:46.289Z,97977.27
2019-05-03T21:34:51.174Z,97976.17
2019-05-03T21:36:54.878Z,97975.59
2019-05-03T21:38:58.610Z,97977.16
2019-05-03T21:41:02.340Z,97968.69
2019-05-03T21:43:06.127Z,97973.84
2019-05-03T21:45:11.187Z,97975.22
2019-05-03T21:47:45.941Z,97979.91
2019-05-03T21:49:49.802Z,97976.68
2019-05-03T21:51:53.736Z,97978.11
2019-05-03T21:53:57.494Z,97979.81
2019-05-03T21:56:01.308Z,97973.84
2019-05-03T21:58:05.153Z,97975.47
2019-05-03T22:00:09.529Z,97979.02
2019-05-03T22:02:15.285Z,97968.66
2019-05-03T22:04:18.768Z,97968.38
2019-05-03T22:06:24.514Z,97970.25
2019-05-03T22:08:28.003Z,97968.36
2019-05-03T22:10:31.804Z,97965.87
2019-05-03T22:12:35.518Z,97966.17
2019-05-03T22:14:45.463Z,97970.80
2019-05-03T22:17:06.825Z,97964.30
2019-05-03T22:19:10.577Z,97964.30
2019-05-03T22:21:36.699Z,97955.34
2019-05-03T22:23:49.986Z,97956.95
2019-05-03T22:25:54.323Z,97962.14
2019-05-03T22:27:59.177Z,97957.77
2019-05-03T22:30:03.031Z,97961.31
2019-05-03T22:32:07.864Z,97954.51
2019-05-03T22:34:12.608Z,97954.23
2019-05-03T22:36:16.445Z,97945.81
2019-05-03T22:38:20.240Z,97940.64
2019-05-03T22:40:25.115Z,97941.76
2019-05-03T22:42:28.974Z,97942.84
2019-05-03T22:44:32.747Z,97938.50
2019-05-03T22:46:36.720Z,97942.02
2019-05-03T22:48:40.471Z,97940.93
2019-05-03T22:50:44.902Z,97942.84
2019-05-03T22:52:48.685Z,97948.84
2019-05-03T22:54:52.495Z,97950.78
2019-05-03T22:56:56.440Z,97947.23
2019-05-03T22:59:00.193Z,97946.70
2019-05-03T23:01:04.158Z,97942.86
2019-05-03T23:03:07.924Z,97945.05
2019-05-03T23:05:12.999Z,97934.98
2019-05-03T23:07:16.750Z,97935.78
2019-05-03T23:09:20.640Z,97926.27
2019-05-03T23:11:24.610Z,97922.20
2019-05-03T23:13:28.463Z,97924.09
2019-05-03T23:15:32.258Z,97916.45
2019-05-03T23:17:36.078Z,97924.31
2019-05-03T23:19:42.248Z,97920.80
2019-05-03T23:22:05.214Z,97915.09
2019-05-03T23:24:09.006Z,97911.54
2019-05-03T23:26:14.734Z,97899.83
2019-05-03T23:28:20.303Z,97900.11
2019-05-03T23:30:24.793Z,97897.09
2019-05-03T23:32:28.711Z,97891.39
2019-05-03T23:34:32.513Z,97889.52
2019-05-03T23:36:37.319Z,97883.81
2019-05-03T23:38:45.039Z,97886.78
2019-05-03T23:40:48.609Z,97881.02
2019-05-03T23:42:54.210Z,97876.89
2019-05-03T23:44:57.956Z,97876.04
2019-05-03T23:47:20.790Z,97876.04
2019-05-03T23:49:25.089Z,97864.59
2019-05-03T23:51:46.553Z,97874.89
2019-05-03T23:53:50.344Z,97861.25
2019-05-03T23:55:59.401Z,97865.84
2019-05-03T23:58:04.823Z,97869.63
